03:58
Airports
History
Links
Donate
Help keep this website running!
PayPal
Bitcoin
This page is community maintained. The information is intended for PC simulator navigation or reference.
Always use approved charts for navigation.
CDY6
Dayspring Airpark
Dayspring Airpark (CDY6)
Lunenburg, Nova Scotia, Canada
4
Lat/Lng:44° 22' 53.29" N / 64° 27' 28.56" W
44.381469 / -64.457932
Elevation:175'ft / 53mMSL
ID / ICAO:CDY6
Runways:1
Longest:(15-33) 547.2m / 1,795ft Gravel
Distance To
Airport ID:
Nearby VORs <50NM
Nearby NDBs
Nearby WeatherUpdated 08-17-17 03:00 GMT
Nearby weather at CYZX, Greenwood located 47.3 nautical miles from CDY6
Altimeter: 29.84
Visibility: 15.0 statute miles
Wind: 3 knots (260°)
Temp: 16°c 61°f
Humidity: 72.2%

METAR: CYZX 170300Z 26003KT 15SM BKN250 16/11 A2984 RMK CI6 WNDY HILL UNAVBL SLP106

(Powered by phpweather)
Runway 15 / 33
Dimensions:547.2 x 14.9m 1795' x 49'ft
Surface:Gravel
Runway 15 [A]Runway 33 [B]
Heading:133°TH 313°TH
Lat:
Lng:
44° 22' 59.36"N
64° 27' 37.63"W
44° 22' 47.22"N
64° 27' 19.47"W
User Notes and Comments
Google Map
Nearby Airports
(U) LIVERPOOL 22.3 NM
CYAU WSW 242°
(C) Waterville Kings Co Muni 47.3 NM
CCW3 NNW 348°
(C) Greenwood 47.3 NM
CYZX (WX) NNW 331°
(C) SHEARWATER 50.5 NM
CYAW (WX) ENE 69°
4 STANLEY 56.3 NM
CCW4 NNE 27°
(C) HALIFAX INTL 58.0 NM
CYHZ (WX) NE 53°
(U) DIGBY 66.4 NM
CYID W 279°
VFR Chart
Flight Planning at SkyVector.com